En poursuivant votre navigation sur ce site, vous acceptez l'utilisation de cookies pour vous proposer des contenus et services adaptés. Mentions légales.
Texte à méditer :  

27/11/2021 l'Ain en vigilance neige/verglas❄️ demain dimanche 28/11  : cliquez ICI
21/11/2021 Mise à jour des tableaux d'analyses décadaires : rubrique climatologie
03/11/2021 Mise en ligne de la synthèse climatologique d'octobre 2021 : cliquez ICI
02/11/2021 Mise à jour des tableaux d'analyses décadaires, mensuelles et annuelles : rubrique climatologie
  

NOAA COMPLET DU MOIS

Si l'entête du tableau ne s'affiche pas correctement, => actualisez la page (F5 avec Internet Explorer, Chrome...).
Utilisez l'ascenseur sur la droite des lignes du tableau pour faire défiler verticalement les jours du mois.

TABLEAU DES DONNEES COMPLETES NOAA d'AVRIL 2021

DATE TEMPERATURE
sous abri
TEMPARATURE 
au sol
VENT  et  Indice de Refroidissement Eolien  PRECIPITATIONS (en mm/m2)
et Intensité
PRESSION ATMOSPHERIQUE (en hPa) HUMIDITE de l'AIR RADIATIONS SOLAIRES (en W/m2)
Mini Moy. Maxi Mini Moy. Maxi Moyen Rafale I.R.E.
Minii
Précip. jour Cumul mois Intensité Maxi Mini Moy. Maxi Mini Moy. Maxi Pic maxi du jour Total jour
01/04/21 10.7° 17.9° 25.2° 7.2° 16.8° 28.3° 4.5km/h dir SE 20.9km/h dir E 10.7° 0 0 1015.3 1017.8 1020.2 37% 51.9% 81% 775 66 696
02/04/21 6.6° 13.9° 21.4° 13.6° 23.9° 8.2km/h dir NNE 37km/h dir N 6.6° 0 0 1013.9 1015.6 1016.8 42% 67.9% 90% 724 62 078
03/04/21 3.9° 9.2° 14° 3.3° 9.2° 16.7° 17.2km/h dir ONO 53.1km/h dir NNE 0 0 1016.2 1017.2 1018.7 45% 64.1% 82% 802 69 882
04/04/21 0.1° 8.8° 16.1° -1.7° 8.4° 19.4° 6.8km/h dir ONO 29km/h dir N 0.1° 0 0 1017.3 1018.9 1020.6 38% 59.7% 86% 814 70 898
05/04/21 0.2° 17.8° -1.1° 21.1° 6km/h dir N 46.7km/h dir N -0.3° 0 0 1011.2 1015.2 1017.9 41% 67.3% 91% 925 65 321
06/04/21 -0.3° 3.7° 7.6° -2.2° 3.8° 11.7° 12.7km/h dir ONO 43.5km/h dir NNE -4° 0 0 1015.1 1016.4 1017.3 47% 65.7% 82% 1181 61 166
07/04/21 -1° 3.1° 8.7° -2.8° 3.2° 12.8° 5.8km/h dir ONO 32.2km/h dir N -2.6° 0.4 0.4 1016.8 1023.5 1026.8 43% 71.2% 93% 1271 66 714
08/04/21 -4.1° 5.4° 15.2° -5.6° 5.2° 18.9° 2.6km/h dir SE 17.7km/h dir SSE -4.3° 0 0.4 1020.9 1024.7 1026.9 25% 57.3% 88% 853 74 591
09/04/21 7.7° 11.8° 16.7° 6.7° 11.7° 18.9° 17.7km/h dir SSE 57.9km/h dir SSE 4.8° 0 0.4 1016.4 1018.9 1020.9 46% 60.5% 75% 923 63 777
10/04/21 9.6° 12.7° 16.6° 8.3° 12.6° 19.4° 16.7km/h dir SSE 54.7km/h dir SSE 6.8° 0 0.4 1011.5 1014.5 1018.2 46% 54.6% 64% 1100 50 258
11/04/21 4.8° 10.6° 14.5° 6.1° 10.7° 17.2° 9.7km/h dir SSE 43.5km/h dir S 2.4° 25.2 25.6 9.2mm/h 1009.3 1012.2 1020.8 64% 81.6% 94% 724 15 388
12/04/21 3.6° 6.4° 11.1° 1.1° 7.6° 15° 10.5km/h dir NNE 40.2km/h dir NNE 1.8° 3.6 29.2 2.2mm/h 1020.9 1025.5 1028.2 46% 75.3% 95% 1088 52 291
13/04/21 -0.6° 12.8° -1.7° 6.3° 16.7° 9km/h dir NNE 37km/h dir NO -2.1° 0 29.2 1025.7 1027.3 1028.7 46% 69.1% 90% 1062 70 578
14/04/21 -0.6° 6.4° 12.9° -2.2° 6.6° 16.7° 9.8km/h dir ONO 37km/h dir N -2.1° 0 29.2 1022.5 1024.3 1026.2 36% 62.5% 88% 937 76 465
15/04/21 -0.1° 6.2° 12.6° -1.7° 6.5° 17.8° 10.3km/h dir NNE 38.6km/h dir N -2.2° 0 29.2 1020.4 1022.5 1023.9 40% 63.4% 87% 949 76 263
16/04/21 0.7° 6.7° 13.3° -0.6° 7.3° 17.8° 12.6km/h dir ONO 45.1km/h dir NO -2.6° 0 29.2 1017.8 1019.6 1021.3 39% 62.2% 82% 960 69 436
17/04/21 0.2° 7.2° 14.5° -1.1° 7.6° 18.3° 10.8km/h dir ONO 40.2km/h dir ONO -2.1° 0 29.2 1016.1 1018.5 1020.1 42% 66.9% 88% 944 76 930
18/04/21 3.1° 8.3° 13.2° 0.6° 8.4° 18.3° 6.9km/h dir ONO 30.6km/h dir O 1.9° 0 29.2 1017.9 1018.9 1019.9 52% 70.2% 85% 1162 50 107
19/04/21 1.9° 9.8° 16.9° 10.1° 21.7° 6km/h dir ONO 29km/h dir NNE 1.7° 0 29.2 1016 1018 1019.7 49% 71% 93% 1000 74 543
20/04/21 1.5° 10.6° 19.2° 10.9° 23.3° 2.9km/h dir O 20.9km/h dir ENE 1.5° 0 29.2 1012.3 1014.8 1016.6 38% 70.3% 94% 861 79 327
21/04/21 7.2° 12.2° 17.6° 6.1° 12.1° 20.6° 2.6km/h dir ESE 17.7km/h dir 0 7.2° 0 29.2 1013.8 1015.2 1016.8 50% 71.4% 88% 846 40 090
22/04/21 8.8° 14.6° 20.8° 8.3° 14.9° 23.3° 6.4km/h dir ONO 30.6km/h dir 0 8.8° 0 29.2 1016.6 1017.7 1018.9 44% 67.6% 89% 868 78 721
23/04/21 4.6° 13.2° 22° 2.8° 13.1° 23.9° 3.9km/h dir ONO 19.3km/h dir 0 4.6° 0 29.2 1018.9 1020.7 1022.5 34% 60.5% 83% 874 80 092
24/04/21 3.9° 14.8° 24.6° 2.8° 14.5° 27.2° 2.9km/h dir S 20.9km/h dir 0 3.9° 0 29.2 1016.4 1019.4 1021.7 32% 59.6% 88% 918 80 934
25/04/21 7.9° 16.4° 23.2° 6.1° 16° 26.1° 5.5km/h dir N 22.5km/h dir 0 7.9° 0 29.2 1012.2 1015.4 1017.4 41% 57.8% 82% 942 69 950
26/04/21 9.8° 14.4° 19.1° 9.4° 14.3° 20° 3.4km/h dir OSO 17.7km/h dir 0 9.4° 0.4 29.6 1005 1009.2 1012.5 53% 69.4% 86% 726 43 704
27/04/21 9.2° 15.2° 21.9° 8.9° 15.4° 24.4° 3.4km/h dir O 20.9km/h dir 0 8.9° 0 29.6 1002.1 1004 1005.5 34% 61.7% 82% 997 74 357
28/04/21 11.3° 14.2° 17.1° 10.6° 14.2° 18.3° 9.7km/h dir SSE 45.1km/h dir 0 11.1° 18.6 48.2 29.4mm/h 1002.7 1003.7 1006.3 67% 80.4% 95% 615 28 048
29/04/21 8.6° 12.1° 16.7° 8.9° 13.3° 19.4° 4km/h dir SE 25.7km/h dir 0 8.6° 2.4 50.6 2mm/h 1006.3 1007.9 1010.4 64% 85.5% 96% 1287 52 386
30/04/21 7.6° 9.2° 10.7° 8.3° 10.6° 13.3° 5km/h dir ONO 30.6km/h dir 0 5.2° 15.4 66 9.2mm/h 1008.2 1010.8 1012.8 85% 92.4% 95% 399 19 263

RETOUR ACCUEIL


Date de création : 02/05/2021 : 08:12
Catégorie : - MOIS PASSES - AVRIL 2021
Page lue 367 fois


Réactions à cet article


Personne n'a encore laissé de commentaire.
Soyez donc le premier !